x

Saxon Harbor, Wi (sxhw3) Weather Station

10:40am - Wed 29th Mar 2017 All times are CDT. -5 hours from GMT.

  • Wind
    1mph, 2mph gusts
  • Air Temp 36°f
  • Sea Pressure 1026.8mb
  • Saxon Harbor, Wi
  • Saxon Harbor, Wi

More Historic Weather Station data

Upgrade to MSW Pro to gain access to the past 30 days of data for over 8000 Wavebouys and Weather Stations around the globe.

Join Pro

Comparision Forecast

View Surf forecast
   
Wed 03/29 10:40am 1 2 mph 1026.8mb 36f
10:30am 2 3 mph 1026.8mb 36f
10:20am 3
mph
1026.8mb 35f
10:10am 2 3 mph 1026.8mb 35f
10:00am 2 3 mph 1026.8mb 36f
9:40am 2 3 mph 1026.8mb 35f
9:30am 2 3 mph 1026.8mb 35f
9:20am 1 3 mph 1026.8mb 35f
9:10am 3 5 mph 1026.4mb 35f
9:00am  -  2 mph 1026.4mb 33f
8:40am  -  2 mph 1026.8mb 31f
8:30am  -  2 mph 1026.8mb 31f
8:20am 1 2 mph 1026.4mb 30f
8:10am 2
mph
1026.4mb 29f
8:00am 1 2 mph 1026.4mb 28f
7:40am 2 3 mph 1026.4mb 27f
7:30am 2 3 mph 1026.1mb 27f
7:20am 2 3 mph 1026.1mb 26f
7:10am 3
mph
1026.4mb 26f
7:00am 3 5 mph 1026.4mb 26f
6:40am 3 5 mph 1026.4mb 26f
6:30am 3 5 mph 1026.1mb 26f
6:20am 3 5 mph 1026.1mb 26f
6:10am 3 5 mph 1026.1mb 26f
6:00am 3 5 mph 1026.1mb 26f
5:40am 2 3 mph 1025.7mb 26f
5:30am 2 3 mph 1025.4mb 26f
5:20am 3
mph
1025.4mb 26f
5:10am 3 5 mph 1025.7mb 26f
5:00am 5
mph
1025.7mb 27f
4:40am 3
mph
1025.7mb 26f
4:30am 2
mph
1025.4mb 26f
4:20am 1 3 mph 1025.4mb 27f
4:10am 3 5 mph 1025.4mb 27f
4:00am 3 6 mph 1025.4mb 27f
3:40am 3 5 mph 1025.1mb 27f
3:30am 3
mph
1025.1mb 27f
3:20am 5 6 mph 1025.1mb 27f
3:10am 2 5 mph 1025.1mb 28f
3:00am 3
mph
1025.1mb 28f
2:40am 2 5 mph 1025.1mb 28f
2:30am 3 5 mph 1025.1mb 28f
2:20am 3
mph
1025.1mb 28f
2:10am  -  3 mph 1025.1mb 28f
2:00am 3 6 mph 1024.7mb 28f
1:40am 3
mph
1025.1mb 28f
1:30am 3 5 mph 1024.7mb 29f
1:20am 3
mph
1024.7mb 29f
1:10am 3 5 mph 1025.1mb 29f
1:00am 5
mph
1025.1mb 29f
12:40am 2 5 mph 1025.1mb 29f
12:30am 3 5 mph 1025.1mb 29f
12:20am 3 5 mph 1025.1mb 29f
12:10am 2 3 mph 1024.7mb 29f
12:00am 3
mph
1025.1mb 29f
Tue 03/28 11:40pm 3 5 mph 1024.7mb 30f
11:30pm 3 5 mph 1024.7mb 30f
11:20pm 3
mph
1024.7mb 30f
11:10pm 3 5 mph 1024.7mb 30f
11:00pm 2 5 mph 1024.4mb 30f
10:40pm 3
mph
1024.4mb 31f
10:30pm 2 3 mph 1024.4mb 31f
10:20pm 3 5 mph 1024.4mb 31f
10:10pm 3
mph
1024mb 31f
10:00pm 3
mph
1024mb 31f
9:40pm 2 3 mph 1023.7mb 32f
9:30pm 2 5 mph 1023.7mb 32f
9:20pm 5
mph
1023.4mb 32f
9:10pm 3 5 mph 1023.4mb 32f
9:00pm 2 3 mph 1023mb 33f
8:40pm 3
mph
1022.7mb 33f
8:30pm 2 5 mph 1022.7mb 34f
8:20pm 2 3 mph 1022.7mb 34f
8:10pm 2 3 mph 1022.4mb 34f
8:00pm 2 3 mph 1022.4mb 35f
7:40pm 3 6 mph 1022mb 36f
7:30pm 3 5 mph 1021.7mb 37f
7:20pm 2 5 mph 1021.7mb 37f
7:10pm 1 5 mph 1022mb 37f
7:00pm 2 5 mph 1021.7mb 38f
6:40pm  -  6 mph 1022mb 40f
6:30pm  -  6 mph 1021.7mb 41f
6:20pm 5 9 mph 1021.7mb 42f
6:10pm 9 11 mph 1021.7mb 43f
6:00pm 6 7 mph 1021.7mb 43f
5:40pm 2 5 mph 1021.7mb 44f
5:30pm 2 3 mph 1021.3mb 44f
5:20pm 1 3 mph 1021.3mb 44f
5:10pm 2 5 mph 1021.7mb 45f
5:00pm  -  5 mph 1021.3mb 44f
4:40pm 2 5 mph 1021.7mb 47f
4:30pm 2 6 mph 1021.3mb 47f
4:20pm 2 5 mph 1021.3mb 45f
4:10pm 1 3 mph 1021.3mb 45f
4:00pm 2 5 mph 1021.7mb 42f
3:40pm 3
mph
1021.7mb 42f
3:30pm 3 5 mph 1021.3mb 39f
3:20pm 3 5 mph 1021.3mb 40f
3:10pm 3
mph
1021.3mb 40f
3:00pm 2 3 mph 1021.3mb 39f
2:40pm 3 6 mph 1021.7mb 38f
2:30pm 5
mph
1021.7mb 39f
2:20pm 2 3 mph 1021.7mb 39f
2:10pm 2 3 mph 1021.7mb 39f
2:00pm 2
mph
1021.7mb 39f
1:40pm  -  2 mph 1021.7mb 39f
1:30pm  -  2 mph 1021.7mb 38f
1:20pm  -  2 mph 1021.7mb 37f
1:10pm 2 3 mph 1021.7mb 38f
1:00pm 2 3 mph 1021.7mb 38f
12:40pm 5 6 mph 1021.7mb 37f
12:30pm 6 7 mph 1022mb 35f
12:20pm 5 6 mph 1021.7mb 36f
12:10pm 3 5 mph 1021.7mb 38f
12:00pm 2 3 mph 1021.7mb 38f
11:40am 3
mph
1021.7mb 42f
11:30am  -  mph 1021.7mb 42f
11:20am  -  2 mph 1021.3mb 42f
11:10am 2
mph
1021.3mb 39f
11:00am 1 2 mph 1021.7mb 37f
10:50am 1 2 mph 1021.7mb 39f
10:40am 1 3 mph 1021.7mb 36f
10:30am 2 5 mph 1021.7mb 37f
10:20am 3 5 mph 1021.7mb 37f
10:10am 1 5 mph 1021.7mb 36f
10:00am 1 9 mph 1021.3mb 35f
9:50am 9 13 mph 1021.3mb 34f
9:40am 3 5 mph 1021mb 42f
9:30am 1 3 mph 1020.7mb 42f
9:20am 2 6 mph 1020.7mb 40f
9:10am 3 7 mph 1020.3mb 39f
9:00am 5 6 mph 1020.3mb 36f
8:50am 6 8 mph 1020.3mb 35f
8:40am 7 8 mph 1020.3mb 34f
8:30am 7 9 mph 1020.3mb 32f
8:20am 7 9 mph 1020mb 31f
8:10am 6 7 mph 1020.3mb 30f
8:00am 5 7 mph 1020.3mb 29f
7:50am 3 5 mph 1020.3mb 28f
7:40am 5 6 mph 1020.3mb 28f
7:30am 2
mph
1020.3mb 27f
7:20am 2 7 mph 1020.3mb 27f
7:10am 5 7 mph 1020.3mb 26f
7:00am 5 6 mph 1020.3mb 26f
6:50am 2 3 mph 1020.3mb 26f
6:40am 3 6 mph 1020.3mb 26f
6:30am 5 7 mph 1020mb 27f
6:20am 2 5 mph 1020mb 26f
6:10am 3 5 mph 1020mb 26f
6:00am 2 5 mph 1019.6mb 26f
5:50am 3 5 mph 1019.6mb 26f
5:40am 2 3 mph 1019.3mb 26f
5:30am 3 6 mph 1019.3mb 27f
5:20am 5 6 mph 1019.3mb 27f
5:10am 3 8 mph 1019mb 27f
5:00am 6 10 mph 1019mb 28f
4:50am 6 7 mph 1019mb 27f
4:40am 5 7 mph 1019mb 27f
4:30am 7 9 mph 1018.6mb 28f
4:20am 7
mph
1018.6mb 27f
4:10am 6 7 mph 1018.6mb 27f
4:00am 6 7 mph 1018.6mb 28f
3:50am 5 6 mph 1018.6mb 27f
3:40am 3 6 mph 1018.6mb 27f
3:30am 5
mph
1018.6mb 27f
3:20am 3 5 mph 1018.6mb 26f
3:10am 3 5 mph 1018.6mb 26f
3:00am 3 5 mph 1018.6mb 26f
2:50am 3 5 mph 1018.6mb 27f
2:40am 3
mph
1018.6mb 27f
2:30am 3
mph
1018.3mb 27f
2:20am 3 5 mph 1018.3mb 27f
2:10am 3
mph
1018.3mb 27f
2:00am 3 5 mph 1018.3mb 27f
1:50am 3 5 mph 1018.3mb 27f
1:40am 3 5 mph 1017.9mb 27f
1:30am 2 3 mph 1017.9mb 28f
1:20am 2 3 mph 1017.9mb 28f
1:10am 2 5 mph 1017.9mb 28f
1:00am 1 2 mph 1017.9mb 28f
12:50am 1 2 mph 1017.6mb 28f
12:40am 1 2 mph 1017.6mb 28f
12:30am 2
mph
1017.3mb 28f
12:20am 2
mph
1017.3mb 28f
12:10am 1 2 mph 1017.6mb 28f
12:00am 2 3 mph 1017.3mb 29f
Mon 03/27 11:50pm 3 6 mph 1017.3mb 29f
11:40pm 5 7 mph 1017.3mb 30f
11:30pm 6 7 mph 1017.3mb 31f
11:20pm 5 7 mph 1017.3mb 30f
11:10pm 5 6 mph 1017.3mb 29f
11:00pm 5 6 mph 1017.3mb 29f
10:50pm 5
mph
1017.3mb 29f
10:40pm 5
mph
1017.3mb 29f
10:30pm 3
mph
1017.3mb 29f
10:20pm 3
mph
1017.3mb 29f
10:10pm 3
mph
1016.9mb 29f
10:00pm 2 3 mph 1016.9mb 29f
9:40pm 2 3 mph 1016.9mb 30f
9:30pm 2 3 mph 1016.9mb 30f
9:20pm 2 3 mph 1016.9mb 30f
9:10pm 2
mph
1016.9mb 31f
9:00pm  -  1 mph 1016.6mb 31f
8:50pm  -  2 mph 1016.6mb 32f
8:40pm 1 2 mph 1016.6mb 32f
8:30pm 1 5 mph 1016.6mb 33f
8:20pm 2
mph
1016.6mb 34f
8:10pm 1 3 mph 1016.6mb 35f
8:00pm 1 2 mph 1016.6mb 35f
7:50pm 2 5 mph 1016.3mb 34f
7:40pm 1 2 mph 1016.3mb 35f
7:30pm 2
mph
1016.3mb 35f
7:20pm  -  2 mph 1016.3mb 35f
7:10pm 2
mph
1016.3mb 34f
7:00pm 2
mph
1015.9mb 35f
6:50pm  -  2 mph 1015.9mb 35f
6:40pm  -  3 mph 1015.9mb 35f
6:30pm 3
mph
1015.6mb 35f
6:20pm 2
mph
1015.6mb 36f
6:10pm  -  1 mph 1015.2mb 36f
6:00pm  -  mph 1015.6mb 36f
5:50pm  -  2 mph 1015.6mb 36f
5:40pm 2 5 mph 1015.6mb 35f
5:30pm 5
mph
1015.6mb 35f
5:20pm 3
mph
1015.6mb 36f
5:10pm  -  2 mph 1015.2mb 35f
5:00pm 2
mph
1015.2mb 37f
4:50pm  -  2 mph 1015.6mb 36f
4:40pm 2 3 mph 1015.6mb 36f
4:30pm  -  2 mph 1015.6mb 36f
4:20pm  -  2 mph 1015.6mb 36f
4:10pm  -  1 mph 1015.6mb 36f
4:00pm 2 3 mph 1015.6mb 35f
3:50pm 2 3 mph 1015.6mb 35f
3:40pm 2
mph
1015.6mb 35f
3:30pm  -  2 mph 1015.6mb 36f
3:20pm 1 2 mph 1015.6mb 36f
3:10pm 1 2 mph 1015.6mb 35f
3:00pm 1 2 mph 1015.6mb 35f
2:50pm 2 3 mph 1015.6mb 37f
2:40pm 3 5 mph 1015.6mb 37f
2:30pm 3 5 mph 1015.6mb 36f
2:20pm 5 7 mph 1015.2mb 37f
2:10pm 5
mph
1015.6mb 37f
2:00pm 3
mph
1015.6mb 37f
1:50pm 2 5 mph 1015.6mb 36f
1:40pm 5 6 mph 1015.6mb 37f
1:30pm 6
mph
1015.6mb 37f
1:20pm 5 6 mph 1015.6mb 38f
1:10pm 5 6 mph 1015.6mb 38f
1:00pm 3
mph
1015.6mb 39f
12:50pm 2 3 mph 1015.6mb 38f
12:40pm 3
mph
1015.6mb 38f
12:30pm 3 5 mph 1015.2mb 37f
12:20pm 5 6 mph 1015.6mb 36f
12:10pm 6
mph
1015.6mb 36f
12:00pm 5
mph
1015.6mb 37f
11:50am 3 5 mph 1015.6mb 37f
11:40am 3 5 mph 1015.6mb 36f
11:30am 3 5 mph 1015.6mb 36f
11:20am 3 5 mph 1015.6mb 35f
11:10am 5 6 mph 1015.6mb 34f
11:00am 5 7 mph 1015.6mb 34f
10:50am 7 8 mph 1015.6mb 34f
10:40am 6 7 mph 1015.6mb 34f
10:30am 3 5 mph 1015.2mb 36f
10:20am  -  5 mph 1015.2mb 37f
10:10am 1 5 mph 1014.9mb 36f
10:00am 3 6 mph 1014.9mb 36f
9:50am 3 6 mph 1014.9mb 35f
9:40am 3 6 mph 1014.9mb 35f
9:30am 5 6 mph 1014.9mb 35f
9:20am  -  5 mph 1014.9mb 35f
9:10am 3 6 mph 1014.9mb 34f
9:00am 3 5 mph 1014.6mb 34f
8:50am 1 3 mph 1014.9mb 34f
8:40am  -  3 mph 1014.9mb 34f
8:30am  -  1 mph 1014.9mb 33f
8:20am  -  2 mph 1014.9mb 33f
8:10am 1 2 mph 1014.9mb 33f
8:00am 1 3 mph 1014.6mb 33f
7:50am  -  1 mph 1014.6mb 33f
7:40am  -  1 mph 1014.2mb 33f
7:30am  -  1 mph 1014.6mb 33f
7:20am  -  1 mph 1014.6mb 33f
7:10am  -  1 mph 1014.2mb 33f
7:00am  -  1 mph 1014.6mb 33f
6:50am  -  1 mph 1014.6mb 33f
6:40am  -  1 mph 1014.6mb 33f
6:30am  -  2 mph 1014.6mb 33f
6:20am 1 2 mph 1014.6mb 33f
6:10am  -  2 mph 1014.9mb 33f
6:00am 2 3 mph 1014.6mb 33f
5:50am 3 6 mph 1014.6mb 33f
5:40am 3 6 mph 1014.2mb 33f
5:30am 2 5 mph 1014.2mb 33f
5:20am 2
mph
1014.2mb 33f
5:10am  -  2 mph 1014.2mb 33f
5:00am  -  2 mph 1013.9mb 33f
4:50am  -  1 mph 1013.9mb 33f
4:40am  -  2 mph 1013.9mb 33f
4:30am 2 3 mph 1013.9mb 33f
4:20am 3 7 mph 1013.9mb 33f
4:10am 5 7 mph 1013.9mb 33f
4:00am 7 8 mph 1013.9mb 33f
3:50am 8 9 mph 1013.9mb 33f
3:40am 7 8 mph 1013.5mb 33f
3:30am 8 9 mph 1013.5mb 33f
3:20am 7 8 mph 1013.5mb 33f
3:10am 6 7 mph 1013.5mb 33f
3:00am 6 7 mph 1013.5mb 33f
2:50am 6 7 mph 1013.5mb 33f
2:40am 6 7 mph 1013.5mb 33f
2:30am 6 8 mph 1013.5mb 33f
2:20am 7 8 mph 1013.5mb 33f
2:10am 7 8 mph 1013.5mb 33f
2:00am 8 9 mph 1013.5mb 33f
1:40am 7 8 mph 1013.5mb 33f
1:30am 7 8 mph 1013.5mb 33f
1:20am 7 8 mph 1013.9mb 33f
1:10am 6 7 mph 1013.5mb 33f
1:00am 3 5 mph 1013.5mb 33f
12:50am 2 3 mph 1013.5mb 33f
Sun 03/26 11:40pm 5 6 mph 1013.5mb 33f
11:30pm 3
mph
1013.5mb 33f
11:20pm 2 5 mph 1013.5mb 33f
11:10pm 3
mph
1013.5mb 33f
11:00pm 3
mph
1013.5mb 33f
10:50pm 3
mph
1013.5mb 33f
10:40pm 3
mph
1013.9mb 33f
10:30pm 3
mph
1013.9mb 33f
10:20pm 3
mph
1013.9mb 33f
10:10pm 3 5 mph 1013.9mb 33f
10:00pm 5 6 mph 1013.9mb 33f
9:50pm 5 6 mph 1013.9mb 33f
9:40pm 5
mph
1013.9mb 33f
9:30pm 5
mph
1013.9mb 33f
9:20pm 5
mph
1014.2mb 33f
9:10pm 5 6 mph 1014.2mb 33f
9:00pm 5
mph
1014.2mb 33f
8:50pm 3
mph
1014.2mb 33f
8:40pm 2 3 mph 1014.2mb 33f
8:30pm 1 2 mph 1014.2mb 33f
8:20pm  -  2 mph 1014.2mb 33f
8:10pm  -  2 mph 1014.2mb 33f
8:00pm 2 3 mph 1014.2mb 33f
7:50pm 2
mph
1013.9mb 33f
7:40pm 1 2 mph 1013.9mb 33f
7:30pm 1 2 mph 1013.9mb 33f
7:20pm 2 3 mph 1013.9mb 33f
7:10pm 2 3 mph 1013.9mb 33f
7:00pm 2 5 mph 1013.9mb 33f
6:50pm 3 5 mph 1013.9mb 33f
6:40pm 2 3 mph 1013.9mb 33f
6:30pm 3 5 mph 1013.9mb 33f
6:20pm 3 5 mph 1013.9mb 34f
6:10pm 3 5 mph 1013.5mb 34f
6:00pm 3 5 mph 1013.5mb 34f
5:50pm 3 6 mph 1013.5mb 34f
5:40pm 5 6 mph 1013.5mb 34f
5:30pm 6
mph
1013.5mb 34f
5:20pm 3 6 mph 1013.5mb 34f
5:10pm 5 6 mph 1013.5mb 34f
5:00pm 3 6 mph 1013.5mb 34f
4:40pm 6
mph
1013.2mb 33f
4:30pm 6
mph
1013.2mb 33f
4:20pm 6
mph
1013.2mb 33f
4:10pm 5
mph
1013.2mb 34f
4:00pm 3
mph
1013.2mb 34f
3:50pm 3
mph
1013.2mb 34f
3:40pm 3
mph
1013.2mb 34f
3:30pm 2 3 mph 1013.2mb 34f
3:20pm 3
mph
1013.5mb 34f
3:10pm 2 5 mph 1013.5mb 34f
3:00pm 5
mph
1013.5mb 34f
2:50pm 5
mph
1013.5mb 34f
2:40pm 3 5 mph 1013.5mb 34f
2:30pm 3
mph
1013.5mb 34f
2:20pm 3
mph
1013.5mb 34f
1:40pm 5
mph
1013.9mb 34f
1:30pm 5
mph
1013.9mb 34f
1:20pm 2 3 mph 1013.9mb 34f
1:10pm 2 3 mph 1013.9mb 34f
1:00pm 2 3 mph 1014.2mb 34f
12:50pm 2 5 mph 1014.2mb 34f
12:40pm 3 5 mph 1014.2mb 34f
12:30pm 3 5 mph 1014.2mb 34f
12:20pm 3 5 mph 1014.2mb 34f
12:10pm 3 5 mph 1014.6mb 34f
12:00pm 3 6 mph 1014.6mb 34f
11:50am 5 6 mph 1014.9mb 34f
11:40am 3 5 mph 1014.9mb 34f
11:30am 3
mph
1014.9mb 34f
11:20am 3 5 mph 1014.9mb 34f
11:10am 5 6 mph 1014.9mb 33f
11:00am 5 7 mph 1014.9mb 33f
10:50am 7 8 mph 1015.2mb 33f
10:40am 6 8 mph 1015.2mb 33f
10:30am 6 8 mph 1015.2mb 33f
10:20am 6 7 mph 1014.9mb 34f
10:10am 1 3 mph 1014.9mb 36f
10:00am 3 5 mph 1015.2mb 35f
9:50am 2
mph
1015.2mb 35f
9:40am  -  1 mph 1015.2mb 34f
9:30am  -  1 mph 1015.6mb 33f
9:20am  -  2 mph 1015.2mb 33f
9:10am  -  1 mph 1015.2mb 33f
9:00am  -  2 mph 1015.2mb 33f
8:50am 2 3 mph 1015.2mb 33f
8:40am 2 3 mph 1015.6mb 33f
8:30am 3
mph
1015.6mb 33f
8:20am 2
mph
1015.9mb 33f
8:10am  -  1 mph 1015.9mb 33f
8:00am  -  mph 1015.9mb 33f
7:50am  -  mph 1015.9mb 33f
7:40am  -  mph 1015.9mb 33f
7:30am  -  mph 1015.9mb 33f
7:20am  -  1 mph 1015.9mb 32f
7:10am  -  mph 1015.9mb 32f
7:00am  -  mph 1015.9mb 32f
6:40am  -  mph 1015.9mb 32f
6:30am  -  mph 1016.3mb 32f
6:20am  -  mph 1016.3mb 32f
6:10am  -  mph 1016.3mb 32f
6:00am  -  mph 1016.3mb 32f
5:50am  -  mph 1016.3mb 32f
5:40am  -  1 mph 1016.3mb 32f
5:30am  -  1 mph 1016.3mb 32f
5:20am  -  1 mph 1016.3mb 32f
5:10am  -  2 mph 1016.6mb 32f
5:00am  -  2 mph 1016.6mb 32f
4:50am  -  1 mph 1016.6mb 32f
4:40am  -  mph 1016.6mb 32f
4:30am  -  1 mph 1016.6mb 32f
4:20am  -  mph 1016.9mb 32f
4:10am  -  1 mph 1016.9mb 32f
4:00am  -  1 mph 1016.9mb 32f
3:50am  -  1 mph 1017.3mb 32f
3:40am  -  2 mph 1017.3mb 33f
3:30am 2 3 mph 1017.3mb 32f
3:20am 2 5 mph 1017.3mb 32f
3:10am 2 5 mph 1017.6mb 32f
3:00am 3 6 mph 1017.6mb 32f
2:50am 3 7 mph 1017.6mb 32f
2:40am 2 6 mph 1017.6mb 32f
2:30am 3 8 mph 1017.9mb 32f
2:20am 3 8 mph 1017.9mb 32f
2:10am 6 9 mph 1017.9mb 32f
2:00am 7 9 mph 1017.9mb 32f
1:50am 7 8 mph 1018.3mb 33f
1:40am 6 8 mph 1018.6mb 33f
1:30am 7 9 mph 1018.6mb 33f
1:20am 7 8 mph 1018.6mb 33f
1:10am 8 9 mph 1018.6mb 33f
1:00am 8 9 mph 1019mb 33f
12:50am 8 10 mph 1019mb 33f
12:40am 9 14 mph 1019mb 33f
12:30am 11 16 mph 1019.3mb 33f
12:20am 13 15 mph 1019.3mb 33f
12:10am 13 15 mph 1019.3mb 33f
12:00am 14 15 mph 1019.3mb 33f
Sat 03/25 11:50pm 11 13 mph 1019.3mb 33f
11:40pm 10 15 mph 1019.6mb 33f
11:30pm 11 14 mph 1020mb 33f
11:20pm 9 14 mph 1020mb 33f
11:10pm 10 14 mph 1020mb 33f
11:00pm 11 15 mph 1020mb 33f
10:50pm 14 16 mph 1020mb 33f
10:40pm 13 16 mph 1020.3mb 33f
10:30pm 14 17 mph 1020.3mb 33f
10:20pm 14 16 mph 1020.3mb 33f
10:10pm 14 17 mph 1020.7mb 33f
10:00pm 15 17 mph 1020.7mb 33f
9:50pm 15 18 mph 1021mb 33f
9:40pm 16 18 mph 1021mb 34f
9:30pm 13 14 mph 1021.3mb 34f
9:20pm 13 14 mph 1021.3mb 34f
9:10pm 11 14 mph 1021.3mb 34f
9:00pm 7 9 mph 1021.3mb 33f
8:50pm 5 6 mph 1021.3mb 32f
8:40pm  -  3 mph 1021.3mb 31f
8:30pm 2 5 mph 1021.3mb 31f
8:20pm 2 6 mph 1021.3mb 32f
8:10pm 3 6 mph 1021.3mb 32f
8:00pm 3 9 mph 1021.3mb 33f
7:50pm 6 8 mph 1021.3mb 33f
7:40pm 7 8 mph 1021.3mb 33f
7:30pm 7 14 mph 1021.3mb 33f
7:20pm 13 15 mph 1021.3mb 33f
7:10pm 14 16 mph 1021.3mb 34f
7:00pm 13 16 mph 1021.3mb 34f
6:50pm 11 16 mph 1021.7mb 34f
6:40pm 15 18 mph 1021.7mb 34f
6:30pm 17 20 mph 1021.7mb 34f
6:20pm 17 18 mph 1021.7mb 34f
6:10pm 17 21 mph 1021.7mb 33f
6:00pm 16 21 mph 1022mb 33f
5:50pm 20 22 mph 1021.7mb 33f
5:40pm 18 22 mph 1022mb 34f
5:30pm 17 22 mph 1021.7mb 34f
5:20pm 18 22 mph 1022mb 33f
5:10pm 20 22 mph 1022mb 33f
5:00pm 17 23 mph 1022mb 33f
4:50pm 18 22 mph 1022mb 33f